sensor_id;sensor_type;location;lat;lon;timestamp;P1;durP1;ratioP1;P2;durP2;ratioP2
9467;SDS011;4772;52.382;9.752;2023-02-03T00:01:23;28.13;;;20.87;;
9467;SDS011;4772;52.382;9.752;2023-02-03T00:03:49;28.03;;;21.07;;
9467;SDS011;4772;52.382;9.752;2023-02-03T00:06:15;27.80;;;22.23;;
9467;SDS011;4772;52.382;9.752;2023-02-03T00:08:41;27.67;;;22.00;;
9467;SDS011;4772;52.382;9.752;2023-02-03T00:11:07;33.23;;;23.40;;
9467;SDS011;4772;52.382;9.752;2023-02-03T00:13:33;29.90;;;22.20;;
9467;SDS011;4772;52.382;9.752;2023-02-03T00:15:59;28.53;;;22.13;;
9467;SDS011;4772;52.382;9.752;2023-02-03T00:18:26;31.60;;;23.87;;
9467;SDS011;4772;52.382;9.752;2023-02-03T00:20:52;32.20;;;23.73;;
9467;SDS011;4772;52.382;9.752;2023-02-03T00:23:18;32.83;;;23.47;;
9467;SDS011;4772;52.382;9.752;2023-02-03T00:25:44;32.97;;;23.90;;
9467;SDS011;4772;52.382;9.752;2023-02-03T00:28:10;32.30;;;24.03;;
9467;SDS011;4772;52.382;9.752;2023-02-03T00:30:36;33.20;;;23.13;;
9467;SDS011;4772;52.382;9.752;2023-02-03T00:33:02;30.07;;;22.90;;
9467;SDS011;4772;52.382;9.752;2023-02-03T00:35:29;32.53;;;22.83;;
9467;SDS011;4772;52.382;9.752;2023-02-03T00:37:55;29.40;;;22.57;;
9467;SDS011;4772;52.382;9.752;2023-02-03T00:40:22;28.40;;;22.87;;
9467;SDS011;4772;52.382;9.752;2023-02-03T00:42:49;30.50;;;23.23;;
9467;SDS011;4772;52.382;9.752;2023-02-03T00:45:15;29.40;;;22.47;;
9467;SDS011;4772;52.382;9.752;2023-02-03T00:47:41;31.03;;;23.30;;
9467;SDS011;4772;52.382;9.752;2023-02-03T00:50:07;27.87;;;23.17;;
9467;SDS011;4772;52.382;9.752;2023-02-03T00:52:34;30.13;;;22.87;;
9467;SDS011;4772;52.382;9.752;2023-02-03T00:55:00;32.13;;;23.07;;
9467;SDS011;4772;52.382;9.752;2023-02-03T00:57:26;31.47;;;22.80;;
9467;SDS011;4772;52.382;9.752;2023-02-03T00:59:52;32.10;;;23.47;;
9467;SDS011;4772;52.382;9.752;2023-02-03T01:02:18;29.17;;;23.20;;
9467;SDS011;4772;52.382;9.752;2023-02-03T01:04:44;32.30;;;23.63;;
9467;SDS011;4772;52.382;9.752;2023-02-03T01:07:10;30.00;;;22.80;;
9467;SDS011;4772;52.382;9.752;2023-02-03T01:09:36;26.47;;;21.77;;
9467;SDS011;4772;52.382;9.752;2023-02-03T01:12:03;29.83;;;22.87;;
9467;SDS011;4772;52.382;9.752;2023-02-03T01:14:29;29.73;;;22.10;;
9467;SDS011;4772;52.382;9.752;2023-02-03T01:16:55;30.63;;;22.40;;
9467;SDS011;4772;52.382;9.752;2023-02-03T01:19:21;26.53;;;21.30;;
9467;SDS011;4772;52.382;9.752;2023-02-03T01:21:47;31.30;;;20.97;;
9467;SDS011;4772;52.382;9.752;2023-02-03T01:24:13;25.13;;;20.80;;
9467;SDS011;4772;52.382;9.752;2023-02-03T01:26:40;28.17;;;21.00;;
9467;SDS011;4772;52.382;9.752;2023-02-03T01:29:06;26.17;;;21.27;;
9467;SDS011;4772;52.382;9.752;2023-02-03T01:31:34;26.00;;;19.50;;
9467;SDS011;4772;52.382;9.752;2023-02-03T01:34:01;26.03;;;19.07;;
9467;SDS011;4772;52.382;9.752;2023-02-03T01:36:28;29.60;;;20.80;;
9467;SDS011;4772;52.382;9.752;2023-02-03T01:38:54;25.27;;;19.73;;
9467;SDS011;4772;52.382;9.752;2023-02-03T01:41:22;25.30;;;18.90;;
9467;SDS011;4772;52.382;9.752;2023-02-03T01:43:49;26.73;;;20.17;;
9467;SDS011;4772;52.382;9.752;2023-02-03T01:46:23;29.30;;;20.00;;
9467;SDS011;4772;52.382;9.752;2023-02-03T01:48:51;26.97;;;19.83;;
9467;SDS011;4772;52.382;9.752;2023-02-03T01:51:18;26.43;;;20.03;;
9467;SDS011;4772;52.382;9.752;2023-02-03T01:53:44;28.10;;;19.90;;
9467;SDS011;4772;52.382;9.752;2023-02-03T01:56:10;22.43;;;19.13;;
9467;SDS011;4772;52.382;9.752;2023-02-03T01:58:37;25.97;;;18.93;;
9467;SDS011;4772;52.382;9.752;2023-02-03T02:01:04;23.87;;;17.83;;
9467;SDS011;4772;52.382;9.752;2023-02-03T02:03:33;19.57;;;16.87;;
9467;SDS011;4772;52.382;9.752;2023-02-03T02:06:08;23.83;;;18.23;;
9467;SDS011;4772;52.382;9.752;2023-02-03T02:08:34;27.17;;;17.17;;
9467;SDS011;4772;52.382;9.752;2023-02-03T02:11:00;24.57;;;16.23;;
9467;SDS011;4772;52.382;9.752;2023-02-03T02:13:27;22.43;;;16.73;;
9467;SDS011;4772;52.382;9.752;2023-02-03T02:18:48;20.70;;;15.63;;
9467;SDS011;4772;52.382;9.752;2023-02-03T02:34:39;16.70;;;13.57;;
9467;SDS011;4772;52.382;9.752;2023-02-03T02:37:22;16.57;;;13.20;;
9467;SDS011;4772;52.382;9.752;2023-02-03T02:40:10;19.40;;;13.23;;
9467;SDS011;4772;52.382;9.752;2023-02-03T02:42:43;15.37;;;12.20;;
9467;SDS011;4772;52.382;9.752;2023-02-03T02:45:14;16.47;;;12.03;;
9467;SDS011;4772;52.382;9.752;2023-02-03T02:47:41;14.70;;;12.27;;
9467;SDS011;4772;52.382;9.752;2023-02-03T02:50:13;18.00;;;12.30;;
9467;SDS011;4772;52.382;9.752;2023-02-03T02:52:41;19.10;;;11.93;;
9467;SDS011;4772;52.382;9.752;2023-02-03T02:55:14;16.47;;;12.37;;
9467;SDS011;4772;52.382;9.752;2023-02-03T02:57:41;16.27;;;11.80;;
9467;SDS011;4772;52.382;9.752;2023-02-03T03:00:08;13.17;;;11.67;;
9467;SDS011;4772;52.382;9.752;2023-02-03T03:02:34;14.93;;;11.50;;
9467;SDS011;4772;52.382;9.752;2023-02-03T03:05:04;16.70;;;11.73;;
9467;SDS011;4772;52.382;9.752;2023-02-03T03:07:33;14.70;;;11.57;;
9467;SDS011;4772;52.382;9.752;2023-02-03T03:10:02;16.00;;;11.10;;
9467;SDS011;4772;52.382;9.752;2023-02-03T03:12:30;19.57;;;11.70;;
9467;SDS011;4772;52.382;9.752;2023-02-03T03:14:58;14.07;;;10.83;;
9467;SDS011;4772;52.382;9.752;2023-02-03T03:17:27;14.50;;;11.17;;
9467;SDS011;4772;52.382;9.752;2023-02-03T03:19:54;16.93;;;11.17;;
9467;SDS011;4772;52.382;9.752;2023-02-03T03:22:22;12.97;;;10.93;;
9467;SDS011;4772;52.382;9.752;2023-02-03T03:24:57;15.93;;;11.50;;
9467;SDS011;4772;52.382;9.752;2023-02-03T03:27:35;19.77;;;11.30;;
9467;SDS011;4772;52.382;9.752;2023-02-03T03:30:05;16.53;;;11.67;;
9467;SDS011;4772;52.382;9.752;2023-02-03T03:32:33;13.33;;;10.60;;
9467;SDS011;4772;52.382;9.752;2023-02-03T03:35:00;13.03;;;10.40;;
9467;SDS011;4772;52.382;9.752;2023-02-03T03:39:59;14.57;;;9.90;;
9467;SDS011;4772;52.382;9.752;2023-02-03T03:42:26;14.10;;;10.53;;
9467;SDS011;4772;52.382;9.752;2023-02-03T03:47:34;14.23;;;10.57;;
9467;SDS011;4772;52.382;9.752;2023-02-03T03:50:01;14.00;;;9.53;;
9467;SDS011;4772;52.382;9.752;2023-02-03T03:52:30;14.00;;;9.80;;
9467;SDS011;4772;52.382;9.752;2023-02-03T03:54:56;10.97;;;9.20;;
9467;SDS011;4772;52.382;9.752;2023-02-03T03:57:25;15.50;;;9.13;;
9467;SDS011;4772;52.382;9.752;2023-02-03T03:59:53;14.93;;;9.43;;
9467;SDS011;4772;52.382;9.752;2023-02-03T04:02:19;14.63;;;9.40;;
9467;SDS011;4772;52.382;9.752;2023-02-03T04:04:45;13.67;;;9.13;;
9467;SDS011;4772;52.382;9.752;2023-02-03T04:07:12;15.97;;;8.80;;
9467;SDS011;4772;52.382;9.752;2023-02-03T04:09:38;13.43;;;8.70;;
9467;SDS011;4772;52.382;9.752;2023-02-03T04:12:08;12.77;;;8.07;;
9467;SDS011;4772;52.382;9.752;2023-02-03T04:14:38;15.27;;;9.00;;
9467;SDS011;4772;52.382;9.752;2023-02-03T04:17:04;12.27;;;8.27;;
9467;SDS011;4772;52.382;9.752;2023-02-03T04:19:30;13.83;;;8.53;;
9467;SDS011;4772;52.382;9.752;2023-02-03T04:21:56;14.47;;;8.90;;
9467;SDS011;4772;52.382;9.752;2023-02-03T04:24:22;13.80;;;8.40;;
9467;SDS011;4772;52.382;9.752;2023-02-03T04:26:48;11.77;;;8.73;;
9467;SDS011;4772;52.382;9.752;2023-02-03T04:29:14;10.63;;;8.53;;
9467;SDS011;4772;52.382;9.752;2023-02-03T04:31:40;13.80;;;8.80;;
9467;SDS011;4772;52.382;9.752;2023-02-03T04:34:06;13.20;;;7.60;;
9467;SDS011;4772;52.382;9.752;2023-02-03T04:36:32;13.07;;;8.60;;
9467;SDS011;4772;52.382;9.752;2023-02-03T04:38:58;14.83;;;8.67;;
9467;SDS011;4772;52.382;9.752;2023-02-03T04:41:24;12.83;;;8.03;;
9467;SDS011;4772;52.382;9.752;2023-02-03T04:43:50;10.53;;;8.70;;
9467;SDS011;4772;52.382;9.752;2023-02-03T04:46:16;13.87;;;8.60;;
9467;SDS011;4772;52.382;9.752;2023-02-03T04:48:42;12.50;;;8.30;;
9467;SDS011;4772;52.382;9.752;2023-02-03T04:51:08;12.33;;;8.63;;
9467;SDS011;4772;52.382;9.752;2023-02-03T04:53:35;15.93;;;8.30;;
9467;SDS011;4772;52.382;9.752;2023-02-03T04:56:01;13.13;;;8.30;;
9467;SDS011;4772;52.382;9.752;2023-02-03T04:58:27;12.67;;;8.13;;
9467;SDS011;4772;52.382;9.752;2023-02-03T05:00:53;15.40;;;8.90;;
9467;SDS011;4772;52.382;9.752;2023-02-03T05:03:19;14.63;;;8.43;;
9467;SDS011;4772;52.382;9.752;2023-02-03T05:05:45;14.73;;;8.33;;
9467;SDS011;4772;52.382;9.752;2023-02-03T05:08:11;12.40;;;8.00;;
9467;SDS011;4772;52.382;9.752;2023-02-03T05:10:37;14.97;;;8.20;;
9467;SDS011;4772;52.382;9.752;2023-02-03T05:13:03;13.00;;;7.70;;
9467;SDS011;4772;52.382;9.752;2023-02-03T05:15:29;13.07;;;7.70;;
9467;SDS011;4772;52.382;9.752;2023-02-03T05:17:55;11.13;;;7.80;;
9467;SDS011;4772;52.382;9.752;2023-02-03T05:20:21;12.10;;;7.57;;
9467;SDS011;4772;52.382;9.752;2023-02-03T05:22:47;15.30;;;8.00;;
9467;SDS011;4772;52.382;9.752;2023-02-03T05:25:13;12.60;;;7.50;;
9467;SDS011;4772;52.382;9.752;2023-02-03T05:27:40;11.10;;;7.40;;
9467;SDS011;4772;52.382;9.752;2023-02-03T05:30:06;10.37;;;7.30;;
9467;SDS011;4772;52.382;9.752;2023-02-03T05:32:33;14.47;;;7.03;;
9467;SDS011;4772;52.382;9.752;2023-02-03T05:34:59;13.13;;;7.20;;
9467;SDS011;4772;52.382;9.752;2023-02-03T05:37:24;12.77;;;6.43;;
9467;SDS011;4772;52.382;9.752;2023-02-03T05:39:51;11.80;;;7.60;;
9467;SDS011;4772;52.382;9.752;2023-02-03T05:42:17;10.67;;;6.43;;
9467;SDS011;4772;52.382;9.752;2023-02-03T05:44:43;10.40;;;6.27;;
9467;SDS011;4772;52.382;9.752;2023-02-03T05:47:08;9.80;;;7.10;;
9467;SDS011;4772;52.382;9.752;2023-02-03T05:49:34;11.30;;;7.27;;
9467;SDS011;4772;52.382;9.752;2023-02-03T05:52:00;14.80;;;7.10;;
9467;SDS011;4772;52.382;9.752;2023-02-03T05:54:26;12.17;;;6.77;;
9467;SDS011;4772;52.382;9.752;2023-02-03T05:56:52;12.67;;;6.80;;
9467;SDS011;4772;52.382;9.752;2023-02-03T05:59:18;11.87;;;6.87;;
9467;SDS011;4772;52.382;9.752;2023-02-03T06:01:44;12.50;;;6.67;;
9467;SDS011;4772;52.382;9.752;2023-02-03T06:04:10;14.13;;;7.03;;
9467;SDS011;4772;52.382;9.752;2023-02-03T06:06:36;12.57;;;7.50;;
9467;SDS011;4772;52.382;9.752;2023-02-03T06:09:03;11.20;;;7.37;;
9467;SDS011;4772;52.382;9.752;2023-02-03T06:11:30;14.50;;;7.10;;
9467;SDS011;4772;52.382;9.752;2023-02-03T06:13:56;11.67;;;7.17;;
9467;SDS011;4772;52.382;9.752;2023-02-03T06:16:23;15.50;;;8.13;;
9467;SDS011;4772;52.382;9.752;2023-02-03T06:18:50;12.27;;;6.97;;
9467;SDS011;4772;52.382;9.752;2023-02-03T06:21:16;11.10;;;6.97;;
9467;SDS011;4772;52.382;9.752;2023-02-03T06:23:42;11.83;;;7.43;;
9467;SDS011;4772;52.382;9.752;2023-02-03T06:26:08;14.27;;;7.50;;
9467;SDS011;4772;52.382;9.752;2023-02-03T06:28:34;16.57;;;7.57;;
9467;SDS011;4772;52.382;9.752;2023-02-03T06:31:02;16.60;;;8.20;;
9467;SDS011;4772;52.382;9.752;2023-02-03T06:33:28;13.97;;;8.23;;
9467;SDS011;4772;52.382;9.752;2023-02-03T06:35:54;15.40;;;8.23;;
9467;SDS011;4772;52.382;9.752;2023-02-03T06:38:20;12.33;;;7.90;;
9467;SDS011;4772;52.382;9.752;2023-02-03T06:40:46;12.13;;;8.70;;
9467;SDS011;4772;52.382;9.752;2023-02-03T06:43:12;18.50;;;8.87;;
9467;SDS011;4772;52.382;9.752;2023-02-03T06:45:38;16.60;;;9.00;;
9467;SDS011;4772;52.382;9.752;2023-02-03T06:48:04;16.43;;;8.40;;
9467;SDS011;4772;52.382;9.752;2023-02-03T06:50:31;13.07;;;8.40;;
9467;SDS011;4772;52.382;9.752;2023-02-03T06:52:57;14.83;;;8.97;;
9467;SDS011;4772;52.382;9.752;2023-02-03T06:55:23;16.30;;;9.13;;
9467;SDS011;4772;52.382;9.752;2023-02-03T06:57:49;18.23;;;8.83;;
9467;SDS011;4772;52.382;9.752;2023-02-03T07:00:16;14.97;;;8.93;;
9467;SDS011;4772;52.382;9.752;2023-02-03T07:02:42;11.90;;;8.73;;
9467;SDS011;4772;52.382;9.752;2023-02-03T07:05:08;14.90;;;8.90;;
9467;SDS011;4772;52.382;9.752;2023-02-03T07:07:34;16.23;;;9.17;;
9467;SDS011;4772;52.382;9.752;2023-02-03T07:10:00;12.10;;;8.73;;
9467;SDS011;4772;52.382;9.752;2023-02-03T07:12:27;16.47;;;10.13;;
9467;SDS011;4772;52.382;9.752;2023-02-03T07:14:53;14.00;;;9.70;;
9467;SDS011;4772;52.382;9.752;2023-02-03T07:17:19;19.17;;;10.00;;
9467;SDS011;4772;52.382;9.752;2023-02-03T07:19:45;17.60;;;9.47;;
9467;SDS011;4772;52.382;9.752;2023-02-03T07:22:11;10.80;;;9.53;;
9467;SDS011;4772;52.382;9.752;2023-02-03T07:24:37;14.47;;;9.90;;
9467;SDS011;4772;52.382;9.752;2023-02-03T07:27:03;12.47;;;9.50;;
9467;SDS011;4772;52.382;9.752;2023-02-03T07:29:29;11.33;;;8.77;;
9467;SDS011;4772;52.382;9.752;2023-02-03T07:31:55;13.10;;;9.40;;
9467;SDS011;4772;52.382;9.752;2023-02-03T07:34:21;17.27;;;9.47;;
9467;SDS011;4772;52.382;9.752;2023-02-03T07:36:47;11.83;;;8.30;;
9467;SDS011;4772;52.382;9.752;2023-02-03T07:39:13;9.30;;;8.30;;
9467;SDS011;4772;52.382;9.752;2023-02-03T07:41:39;11.87;;;8.20;;
9467;SDS011;4772;52.382;9.752;2023-02-03T07:44:05;10.17;;;8.33;;
9467;SDS011;4772;52.382;9.752;2023-02-03T07:46:31;11.27;;;8.20;;
9467;SDS011;4772;52.382;9.752;2023-02-03T07:48:57;9.37;;;8.13;;
9467;SDS011;4772;52.382;9.752;2023-02-03T07:51:23;12.13;;;8.80;;
9467;SDS011;4772;52.382;9.752;2023-02-03T07:53:48;11.93;;;8.60;;
9467;SDS011;4772;52.382;9.752;2023-02-03T07:56:14;12.27;;;8.93;;
9467;SDS011;4772;52.382;9.752;2023-02-03T07:58:40;10.70;;;8.00;;
9467;SDS011;4772;52.382;9.752;2023-02-03T08:01:11;9.57;;;8.10;;
9467;SDS011;4772;52.382;9.752;2023-02-03T08:03:37;11.57;;;8.10;;
9467;SDS011;4772;52.382;9.752;2023-02-03T08:06:03;10.80;;;8.23;;
9467;SDS011;4772;52.382;9.752;2023-02-03T08:08:30;10.33;;;8.50;;
9467;SDS011;4772;52.382;9.752;2023-02-03T08:10:56;9.03;;;7.70;;
9467;SDS011;4772;52.382;9.752;2023-02-03T08:13:21;10.00;;;7.50;;
9467;SDS011;4772;52.382;9.752;2023-02-03T08:15:47;10.27;;;7.93;;
9467;SDS011;4772;52.382;9.752;2023-02-03T08:18:16;10.73;;;7.60;;
9467;SDS011;4772;52.382;9.752;2023-02-03T08:20:43;9.73;;;6.90;;
9467;SDS011;4772;52.382;9.752;2023-02-03T08:23:09;10.07;;;7.80;;
9467;SDS011;4772;52.382;9.752;2023-02-03T08:25:35;10.67;;;7.80;;
9467;SDS011;4772;52.382;9.752;2023-02-03T08:28:01;8.93;;;6.90;;
9467;SDS011;4772;52.382;9.752;2023-02-03T08:30:26;10.67;;;7.73;;
9467;SDS011;4772;52.382;9.752;2023-02-03T08:32:52;9.93;;;7.20;;
9467;SDS011;4772;52.382;9.752;2023-02-03T08:35:18;9.43;;;7.40;;
9467;SDS011;4772;52.382;9.752;2023-02-03T08:37:44;13.20;;;7.63;;
9467;SDS011;4772;52.382;9.752;2023-02-03T08:40:10;10.47;;;6.97;;
9467;SDS011;4772;52.382;9.752;2023-02-03T08:42:36;12.97;;;7.40;;
9467;SDS011;4772;52.382;9.752;2023-02-03T08:45:03;10.10;;;6.60;;
9467;SDS011;4772;52.382;9.752;2023-02-03T08:47:29;10.83;;;6.93;;
9467;SDS011;4772;52.382;9.752;2023-02-03T08:49:56;9.43;;;6.47;;
9467;SDS011;4772;52.382;9.752;2023-02-03T08:52:22;9.37;;;7.20;;
9467;SDS011;4772;52.382;9.752;2023-02-03T08:54:48;9.63;;;7.17;;
9467;SDS011;4772;52.382;9.752;2023-02-03T08:57:14;13.17;;;8.00;;
9467;SDS011;4772;52.382;9.752;2023-02-03T08:59:41;10.93;;;7.90;;
9467;SDS011;4772;52.382;9.752;2023-02-03T09:02:08;11.77;;;7.83;;
9467;SDS011;4772;52.382;9.752;2023-02-03T09:04:36;14.17;;;8.20;;
9467;SDS011;4772;52.382;9.752;2023-02-03T09:07:02;14.53;;;8.70;;
9467;SDS011;4772;52.382;9.752;2023-02-03T09:09:28;10.87;;;7.83;;
9467;SDS011;4772;52.382;9.752;2023-02-03T09:11:54;11.03;;;7.90;;
9467;SDS011;4772;52.382;9.752;2023-02-03T09:14:26;13.20;;;7.53;;
9467;SDS011;4772;52.382;9.752;2023-02-03T09:16:52;12.37;;;7.40;;
9467;SDS011;4772;52.382;9.752;2023-02-03T09:19:18;12.30;;;7.23;;
9467;SDS011;4772;52.382;9.752;2023-02-03T09:21:44;12.13;;;6.67;;
9467;SDS011;4772;52.382;9.752;2023-02-03T09:24:12;10.80;;;6.13;;
9467;SDS011;4772;52.382;9.752;2023-02-03T09:26:38;12.97;;;6.33;;
9467;SDS011;4772;52.382;9.752;2023-02-03T09:29:04;12.37;;;6.57;;
9467;SDS011;4772;52.382;9.752;2023-02-03T09:31:31;14.80;;;5.40;;
9467;SDS011;4772;52.382;9.752;2023-02-03T09:33:58;15.43;;;6.10;;
9467;SDS011;4772;52.382;9.752;2023-02-03T09:36:24;12.70;;;5.53;;
9467;SDS011;4772;52.382;9.752;2023-02-03T09:38:50;10.07;;;5.30;;
9467;SDS011;4772;52.382;9.752;2023-02-03T09:42:02;12.47;;;5.57;;
9467;SDS011;4772;52.382;9.752;2023-02-03T09:46:57;10.20;;;5.60;;
9467;SDS011;4772;52.382;9.752;2023-02-03T09:49:25;13.70;;;5.33;;
9467;SDS011;4772;52.382;9.752;2023-02-03T09:51:52;9.03;;;5.13;;
9467;SDS011;4772;52.382;9.752;2023-02-03T09:57:11;10.20;;;4.57;;
9467;SDS011;4772;52.382;9.752;2023-02-03T09:59:38;9.90;;;4.67;;
9467;SDS011;4772;52.382;9.752;2023-02-03T10:07:33;10.80;;;4.77;;
9467;SDS011;4772;52.382;9.752;2023-02-03T10:10:21;9.80;;;4.30;;
9467;SDS011;4772;52.382;9.752;2023-02-03T10:15:32;18.60;;;4.63;;
9467;SDS011;4772;52.382;9.752;2023-02-03T10:18:04;12.83;;;3.87;;
9467;SDS011;4772;52.382;9.752;2023-02-03T10:20:36;17.23;;;4.13;;
9467;SDS011;4772;52.382;9.752;2023-02-03T10:23:05;12.27;;;4.17;;
9467;SDS011;4772;52.382;9.752;2023-02-03T10:25:33;13.23;;;3.93;;
9467;SDS011;4772;52.382;9.752;2023-02-03T10:28:02;14.30;;;4.00;;
9467;SDS011;4772;52.382;9.752;2023-02-03T10:30:39;11.40;;;4.13;;
9467;SDS011;4772;52.382;9.752;2023-02-03T10:33:12;10.97;;;4.00;;
9467;SDS011;4772;52.382;9.752;2023-02-03T10:35:46;9.40;;;4.53;;
9467;SDS011;4772;52.382;9.752;2023-02-03T10:38:14;12.07;;;3.70;;
9467;SDS011;4772;52.382;9.752;2023-02-03T10:40:43;10.17;;;3.60;;
9467;SDS011;4772;52.382;9.752;2023-02-03T10:43:09;9.53;;;3.60;;
9467;SDS011;4772;52.382;9.752;2023-02-03T10:45:54;9.50;;;3.37;;
9467;SDS011;4772;52.382;9.752;2023-02-03T10:48:20;12.43;;;3.00;;
9467;SDS011;4772;52.382;9.752;2023-02-03T10:50:48;11.17;;;3.47;;
9467;SDS011;4772;52.382;9.752;2023-02-03T10:55:44;9.80;;;3.87;;
9467;SDS011;4772;52.382;9.752;2023-02-03T10:58:15;14.10;;;3.63;;
9467;SDS011;4772;52.382;9.752;2023-02-03T11:00:42;11.47;;;3.50;;
9467;SDS011;4772;52.382;9.752;2023-02-03T11:03:27;9.47;;;2.97;;
9467;SDS011;4772;52.382;9.752;2023-02-03T11:08:32;14.10;;;3.83;;
9467;SDS011;4772;52.382;9.752;2023-02-03T11:11:03;10.07;;;3.40;;
9467;SDS011;4772;52.382;9.752;2023-02-03T11:13:29;10.10;;;3.20;;
9467;SDS011;4772;52.382;9.752;2023-02-03T11:15:58;15.13;;;3.57;;
9467;SDS011;4772;52.382;9.752;2023-02-03T11:18:26;12.60;;;3.93;;
9467;SDS011;4772;52.382;9.752;2023-02-03T11:20:55;11.80;;;4.00;;
9467;SDS011;4772;52.382;9.752;2023-02-03T11:23:21;12.03;;;3.60;;
9467;SDS011;4772;52.382;9.752;2023-02-03T11:25:47;12.73;;;3.87;;
9467;SDS011;4772;52.382;9.752;2023-02-03T11:28:13;16.27;;;3.50;;
9467;SDS011;4772;52.382;9.752;2023-02-03T11:30:39;10.30;;;3.40;;
9467;SDS011;4772;52.382;9.752;2023-02-03T11:33:16;14.20;;;3.63;;
9467;SDS011;4772;52.382;9.752;2023-02-03T11:35:56;13.33;;;3.53;;
9467;SDS011;4772;52.382;9.752;2023-02-03T11:38:32;11.97;;;3.80;;
9467;SDS011;4772;52.382;9.752;2023-02-03T11:41:03;13.03;;;3.53;;
9467;SDS011;4772;52.382;9.752;2023-02-03T11:43:29;12.77;;;3.80;;
9467;SDS011;4772;52.382;9.752;2023-02-03T11:46:13;11.93;;;3.20;;
9467;SDS011;4772;52.382;9.752;2023-02-03T11:48:43;13.10;;;3.67;;
9467;SDS011;4772;52.382;9.752;2023-02-03T11:56:39;15.90;;;3.43;;
9467;SDS011;4772;52.382;9.752;2023-02-03T11:59:26;19.97;;;3.83;;
9467;SDS011;4772;52.382;9.752;2023-02-03T12:05:00;18.33;;;4.23;;
9467;SDS011;4772;52.382;9.752;2023-02-03T12:22:42;20.70;;;4.67;;
9467;SDS011;4772;52.382;9.752;2023-02-03T12:30:40;18.07;;;4.57;;
9467;SDS011;4772;52.382;9.752;2023-02-03T12:33:12;13.93;;;3.90;;
9467;SDS011;4772;52.382;9.752;2023-02-03T12:35:49;11.10;;;3.70;;
9467;SDS011;4772;52.382;9.752;2023-02-03T12:38:25;14.77;;;3.93;;
9467;SDS011;4772;52.382;9.752;2023-02-03T12:40:54;16.40;;;4.23;;
9467;SDS011;4772;52.382;9.752;2023-02-03T12:48:53;18.07;;;4.60;;
9467;SDS011;4772;52.382;9.752;2023-02-03T12:51:40;16.57;;;4.23;;
9467;SDS011;4772;52.382;9.752;2023-02-03T12:54:55;15.97;;;4.23;;
9467;SDS011;4772;52.382;9.752;2023-02-03T12:56:54;19.10;;;4.07;;
9467;SDS011;4772;52.382;9.752;2023-02-03T12:59:25;14.53;;;4.30;;
9467;SDS011;4772;52.382;9.752;2023-02-03T13:02:02;16.77;;;3.87;;
9467;SDS011;4772;52.382;9.752;2023-02-03T13:04:37;17.33;;;4.40;;
9467;SDS011;4772;52.382;9.752;2023-02-03T13:07:11;13.50;;;3.50;;
9467;SDS011;4772;52.382;9.752;2023-02-03T13:12:24;17.40;;;4.03;;
9467;SDS011;4772;52.382;9.752;2023-02-03T13:17:25;18.47;;;4.53;;
9467;SDS011;4772;52.382;9.752;2023-02-03T13:20:10;15.67;;;3.90;;
9467;SDS011;4772;52.382;9.752;2023-02-03T13:22:38;13.80;;;4.20;;
9467;SDS011;4772;52.382;9.752;2023-02-03T13:27:51;18.10;;;3.80;;
9467;SDS011;4772;52.382;9.752;2023-02-03T13:42:45;22.17;;;4.70;;
9467;SDS011;4772;52.382;9.752;2023-02-03T13:45:17;16.90;;;4.20;;
9467;SDS011;4772;52.382;9.752;2023-02-03T13:47:49;22.53;;;3.87;;
9467;SDS011;4772;52.382;9.752;2023-02-03T13:50:19;19.30;;;4.07;;
9467;SDS011;4772;52.382;9.752;2023-02-03T13:52:47;14.33;;;4.17;;
9467;SDS011;4772;52.382;9.752;2023-02-03T13:55:30;17.20;;;3.70;;
9467;SDS011;4772;52.382;9.752;2023-02-03T13:57:58;18.47;;;3.83;;
9467;SDS011;4772;52.382;9.752;2023-02-03T14:03:18;15.53;;;4.00;;
9467;SDS011;4772;52.382;9.752;2023-02-03T14:06:00;14.47;;;3.60;;
9467;SDS011;4772;52.382;9.752;2023-02-03T14:13:38;17.70;;;4.03;;
9467;SDS011;4772;52.382;9.752;2023-02-03T14:16:12;16.33;;;4.47;;
9467;SDS011;4772;52.382;9.752;2023-02-03T14:18:42;17.23;;;4.23;;
9467;SDS011;4772;52.382;9.752;2023-02-03T14:21:19;22.23;;;3.67;;
9467;SDS011;4772;52.382;9.752;2023-02-03T14:23:54;16.47;;;3.93;;
9467;SDS011;4772;52.382;9.752;2023-02-03T14:26:32;14.60;;;3.60;;
9467;SDS011;4772;52.382;9.752;2023-02-03T14:28:59;13.00;;;4.00;;
9467;SDS011;4772;52.382;9.752;2023-02-03T14:31:25;15.37;;;3.60;;
9467;SDS011;4772;52.382;9.752;2023-02-03T14:46:42;14.63;;;3.50;;
9467;SDS011;4772;52.382;9.752;2023-02-03T14:51:59;19.40;;;4.07;;
9467;SDS011;4772;52.382;9.752;2023-02-03T15:02:18;14.80;;;4.27;;
9467;SDS011;4772;52.382;9.752;2023-02-03T15:04:47;17.20;;;3.83;;
9467;SDS011;4772;52.382;9.752;2023-02-03T15:10:20;18.77;;;4.57;;
9467;SDS011;4772;52.382;9.752;2023-02-03T15:12:47;22.87;;;5.40;;
9467;SDS011;4772;52.382;9.752;2023-02-03T15:15:33;15.53;;;4.00;;
9467;SDS011;4772;52.382;9.752;2023-02-03T15:18:18;21.03;;;3.87;;
9467;SDS011;4772;52.382;9.752;2023-02-03T15:20:53;16.87;;;4.70;;
9467;SDS011;4772;52.382;9.752;2023-02-03T15:23:20;20.50;;;3.93;;
9467;SDS011;4772;52.382;9.752;2023-02-03T15:28:57;14.87;;;4.03;;
9467;SDS011;4772;52.382;9.752;2023-02-03T15:33:49;18.57;;;4.73;;
9467;SDS011;4772;52.382;9.752;2023-02-03T15:36:21;21.07;;;4.73;;
9467;SDS011;4772;52.382;9.752;2023-02-03T15:38:51;18.07;;;4.30;;
9467;SDS011;4772;52.382;9.752;2023-02-03T15:41:23;17.47;;;4.30;;
9467;SDS011;4772;52.382;9.752;2023-02-03T15:43:51;16.97;;;4.13;;
9467;SDS011;4772;52.382;9.752;2023-02-03T15:46:31;19.27;;;3.97;;
9467;SDS011;4772;52.382;9.752;2023-02-03T15:49:42;22.23;;;4.23;;
9467;SDS011;4772;52.382;9.752;2023-02-03T15:51:54;17.53;;;4.63;;
9467;SDS011;4772;52.382;9.752;2023-02-03T15:54:31;19.40;;;4.10;;
9467;SDS011;4772;52.382;9.752;2023-02-03T15:57:19;21.40;;;4.87;;
9467;SDS011;4772;52.382;9.752;2023-02-03T15:59:51;23.90;;;4.53;;
9467;SDS011;4772;52.382;9.752;2023-02-03T16:02:20;14.27;;;4.17;;
9467;SDS011;4772;52.382;9.752;2023-02-03T16:04:47;22.00;;;4.40;;
9467;SDS011;4772;52.382;9.752;2023-02-03T16:07:17;15.27;;;4.23;;
9467;SDS011;4772;52.382;9.752;2023-02-03T16:09:44;21.23;;;4.77;;
9467;SDS011;4772;52.382;9.752;2023-02-03T16:14:39;19.17;;;4.43;;
9467;SDS011;4772;52.382;9.752;2023-02-03T16:17:13;22.30;;;4.80;;
9467;SDS011;4772;52.382;9.752;2023-02-03T16:19:45;19.83;;;4.57;;
9467;SDS011;4772;52.382;9.752;2023-02-03T16:22:28;27.43;;;4.83;;
9467;SDS011;4772;52.382;9.752;2023-02-03T16:24:56;19.33;;;4.70;;
9467;SDS011;4772;52.382;9.752;2023-02-03T16:36:12;25.20;;;4.83;;
9467;SDS011;4772;52.382;9.752;2023-02-03T16:38:57;21.90;;;5.00;;
9467;SDS011;4772;52.382;9.752;2023-02-03T16:41:44;27.90;;;4.73;;
9467;SDS011;4772;52.382;9.752;2023-02-03T16:44:28;19.70;;;4.60;;
9467;SDS011;4772;52.382;9.752;2023-02-03T16:47:20;22.70;;;5.00;;
9467;SDS011;4772;52.382;9.752;2023-02-03T16:50:05;22.23;;;4.70;;
9467;SDS011;4772;52.382;9.752;2023-02-03T16:52:50;18.03;;;5.40;;
9467;SDS011;4772;52.382;9.752;2023-02-03T16:55:16;23.43;;;5.77;;
9467;SDS011;4772;52.382;9.752;2023-02-03T16:57:41;25.07;;;5.43;;
9467;SDS011;4772;52.382;9.752;2023-02-03T17:00:08;23.03;;;5.10;;
9467;SDS011;4772;52.382;9.752;2023-02-03T17:02:36;28.00;;;6.38;;
9467;SDS011;4772;52.382;9.752;2023-02-03T17:05:02;21.47;;;5.17;;
9467;SDS011;4772;52.382;9.752;2023-02-03T17:07:28;23.83;;;4.97;;
9467;SDS011;4772;52.382;9.752;2023-02-03T17:09:54;25.40;;;5.90;;
9467;SDS011;4772;52.382;9.752;2023-02-03T17:12:20;27.30;;;5.80;;
9467;SDS011;4772;52.382;9.752;2023-02-03T17:14:46;26.00;;;6.10;;
9467;SDS011;4772;52.382;9.752;2023-02-03T17:17:12;24.10;;;5.40;;
9467;SDS011;4772;52.382;9.752;2023-02-03T17:19:38;26.00;;;4.80;;
9467;SDS011;4772;52.382;9.752;2023-02-03T17:22:04;22.73;;;4.87;;
9467;SDS011;4772;52.382;9.752;2023-02-03T17:24:31;24.37;;;4.93;;
9467;SDS011;4772;52.382;9.752;2023-02-03T17:26:57;23.57;;;5.20;;
9467;SDS011;4772;52.382;9.752;2023-02-03T17:29:23;24.97;;;4.50;;
9467;SDS011;4772;52.382;9.752;2023-02-03T17:31:49;23.63;;;6.00;;
9467;SDS011;4772;52.382;9.752;2023-02-03T17:34:15;22.13;;;5.27;;